sensor_id;sensor_type;location;lat;lon;timestamp;P1;durP1;ratioP1;P2;durP2;ratioP2
2618;SDS011;1319;52.346;13.096;2024-03-23T00:54:05;19.37;;;3.60;;
2618;SDS011;1319;52.346;13.096;2024-03-23T00:56:30;21.07;;;3.83;;
2618;SDS011;1319;52.346;13.096;2024-03-23T00:58:56;20.63;;;3.83;;
2618;SDS011;1319;52.346;13.096;2024-03-23T01:01:21;24.07;;;3.47;;
2618;SDS011;1319;52.346;13.096;2024-03-23T01:03:46;23.27;;;3.97;;
2618;SDS011;1319;52.346;13.096;2024-03-23T01:06:11;20.93;;;3.63;;
2618;SDS011;1319;52.346;13.096;2024-03-23T01:08:37;23.10;;;3.43;;
2618;SDS011;1319;52.346;13.096;2024-03-23T01:11:02;28.17;;;3.70;;
2618;SDS011;1319;52.346;13.096;2024-03-23T01:13:27;17.63;;;3.37;;
2618;SDS011;1319;52.346;13.096;2024-03-23T01:15:53;29.03;;;4.13;;
2618;SDS011;1319;52.346;13.096;2024-03-23T01:18:19;20.17;;;3.47;;
2618;SDS011;1319;52.346;13.096;2024-03-23T01:20:44;13.40;;;3.77;;
2618;SDS011;1319;52.346;13.096;2024-03-23T01:23:10;20.87;;;3.10;;
2618;SDS011;1319;52.346;13.096;2024-03-23T01:25:35;21.77;;;3.73;;
2618;SDS011;1319;52.346;13.096;2024-03-23T01:28:00;20.73;;;3.57;;
2618;SDS011;1319;52.346;13.096;2024-03-23T01:30:26;18.87;;;3.67;;
2618;SDS011;1319;52.346;13.096;2024-03-23T01:32:51;23.10;;;3.83;;
2618;SDS011;1319;52.346;13.096;2024-03-23T01:35:16;17.60;;;3.37;;
2618;SDS011;1319;52.346;13.096;2024-03-23T01:37:41;19.50;;;3.40;;
2618;SDS011;1319;52.346;13.096;2024-03-23T01:40:07;19.40;;;3.33;;
2618;SDS011;1319;52.346;13.096;2024-03-23T01:42:32;17.17;;;3.50;;
2618;SDS011;1319;52.346;13.096;2024-03-23T01:44:57;15.50;;;3.20;;
2618;SDS011;1319;52.346;13.096;2024-03-23T01:47:22;22.30;;;4.23;;
2618;SDS011;1319;52.346;13.096;2024-03-23T01:49:48;15.23;;;3.17;;
2618;SDS011;1319;52.346;13.096;2024-03-23T01:52:13;16.77;;;3.20;;
2618;SDS011;1319;52.346;13.096;2024-03-23T01:54:38;20.13;;;3.50;;
2618;SDS011;1319;52.346;13.096;2024-03-23T01:57:04;19.53;;;3.60;;
2618;SDS011;1319;52.346;13.096;2024-03-23T01:59:29;24.87;;;3.63;;
2618;SDS011;1319;52.346;13.096;2024-03-23T02:01:54;14.83;;;3.23;;
2618;SDS011;1319;52.346;13.096;2024-03-23T02:04:20;27.97;;;4.00;;
2618;SDS011;1319;52.346;13.096;2024-03-23T02:06:45;20.07;;;3.83;;
2618;SDS011;1319;52.346;13.096;2024-03-23T02:09:10;16.57;;;3.20;;
2618;SDS011;1319;52.346;13.096;2024-03-23T02:11:35;19.63;;;3.60;;
2618;SDS011;1319;52.346;13.096;2024-03-23T02:14:00;17.27;;;3.77;;
2618;SDS011;1319;52.346;13.096;2024-03-23T02:16:26;21.73;;;3.33;;
2618;SDS011;1319;52.346;13.096;2024-03-23T02:18:51;26.83;;;3.93;;
2618;SDS011;1319;52.346;13.096;2024-03-23T02:21:16;23.23;;;3.40;;
2618;SDS011;1319;52.346;13.096;2024-03-23T02:23:41;26.37;;;4.17;;
2618;SDS011;1319;52.346;13.096;2024-03-23T02:26:07;26.20;;;4.20;;
2618;SDS011;1319;52.346;13.096;2024-03-23T02:28:32;13.37;;;3.57;;
2618;SDS011;1319;52.346;13.096;2024-03-23T02:30:57;24.20;;;4.13;;
2618;SDS011;1319;52.346;13.096;2024-03-23T02:33:23;23.57;;;3.67;;
2618;SDS011;1319;52.346;13.096;2024-03-23T02:35:48;25.40;;;4.10;;
2618;SDS011;1319;52.346;13.096;2024-03-23T02:38:14;23.23;;;3.83;;
2618;SDS011;1319;52.346;13.096;2024-03-23T02:40:39;13.10;;;3.60;;
2618;SDS011;1319;52.346;13.096;2024-03-23T02:43:04;23.10;;;3.90;;
2618;SDS011;1319;52.346;13.096;2024-03-23T02:45:30;20.20;;;4.37;;
2618;SDS011;1319;52.346;13.096;2024-03-23T02:47:55;20.03;;;4.37;;
2618;SDS011;1319;52.346;13.096;2024-03-23T02:50:20;24.10;;;4.30;;
2618;SDS011;1319;52.346;13.096;2024-03-23T02:52:46;19.37;;;3.90;;
2618;SDS011;1319;52.346;13.096;2024-03-23T02:55:11;28.63;;;4.80;;
2618;SDS011;1319;52.346;13.096;2024-03-23T02:57:36;27.90;;;4.63;;
2618;SDS011;1319;52.346;13.096;2024-03-23T03:00:01;24.90;;;4.17;;
2618;SDS011;1319;52.346;13.096;2024-03-23T03:02:27;20.10;;;3.80;;
2618;SDS011;1319;52.346;13.096;2024-03-23T03:04:52;21.43;;;4.47;;
2618;SDS011;1319;52.346;13.096;2024-03-23T03:07:17;18.40;;;4.23;;
2618;SDS011;1319;52.346;13.096;2024-03-23T03:09:43;17.87;;;4.03;;
2618;SDS011;1319;52.346;13.096;2024-03-23T03:12:08;17.83;;;4.03;;
2618;SDS011;1319;52.346;13.096;2024-03-23T03:14:34;22.17;;;3.90;;
2618;SDS011;1319;52.346;13.096;2024-03-23T03:16:59;24.90;;;4.53;;
2618;SDS011;1319;52.346;13.096;2024-03-23T03:19:24;21.73;;;4.40;;
2618;SDS011;1319;52.346;13.096;2024-03-23T03:21:49;19.17;;;4.40;;
2618;SDS011;1319;52.346;13.096;2024-03-23T03:24:15;23.07;;;4.07;;
2618;SDS011;1319;52.346;13.096;2024-03-23T03:26:40;26.90;;;3.87;;
2618;SDS011;1319;52.346;13.096;2024-03-23T03:29:05;14.97;;;3.73;;
2618;SDS011;1319;52.346;13.096;2024-03-23T03:31:30;22.37;;;3.70;;
2618;SDS011;1319;52.346;13.096;2024-03-23T03:33:56;22.70;;;4.37;;
2618;SDS011;1319;52.346;13.096;2024-03-23T03:36:21;21.53;;;4.40;;
2618;SDS011;1319;52.346;13.096;2024-03-23T03:38:46;20.33;;;4.70;;
2618;SDS011;1319;52.346;13.096;2024-03-23T03:41:11;21.30;;;4.03;;
2618;SDS011;1319;52.346;13.096;2024-03-23T03:43:37;21.10;;;4.67;;
2618;SDS011;1319;52.346;13.096;2024-03-23T03:46:03;22.67;;;4.43;;
2618;SDS011;1319;52.346;13.096;2024-03-23T03:48:28;23.27;;;3.87;;
2618;SDS011;1319;52.346;13.096;2024-03-23T03:50:53;18.93;;;4.67;;
2618;SDS011;1319;52.346;13.096;2024-03-23T03:53:19;22.23;;;4.43;;
2618;SDS011;1319;52.346;13.096;2024-03-23T03:55:44;21.80;;;4.77;;
2618;SDS011;1319;52.346;13.096;2024-03-23T03:58:09;19.63;;;4.20;;
2618;SDS011;1319;52.346;13.096;2024-03-23T04:00:35;18.53;;;4.17;;
2618;SDS011;1319;52.346;13.096;2024-03-23T04:03:00;17.63;;;3.73;;
2618;SDS011;1319;52.346;13.096;2024-03-23T04:05:25;19.67;;;3.97;;
2618;SDS011;1319;52.346;13.096;2024-03-23T04:07:51;18.93;;;3.60;;
2618;SDS011;1319;52.346;13.096;2024-03-23T04:10:16;24.40;;;4.20;;
2618;SDS011;1319;52.346;13.096;2024-03-23T04:12:42;19.20;;;3.70;;
2618;SDS011;1319;52.346;13.096;2024-03-23T04:15:08;19.13;;;3.43;;
2618;SDS011;1319;52.346;13.096;2024-03-23T04:17:33;16.90;;;3.63;;
2618;SDS011;1319;52.346;13.096;2024-03-23T04:19:59;15.97;;;3.00;;
2618;SDS011;1319;52.346;13.096;2024-03-23T04:22:25;20.00;;;3.30;;
2618;SDS011;1319;52.346;13.096;2024-03-23T04:24:52;21.13;;;3.07;;
2618;SDS011;1319;52.346;13.096;2024-03-23T04:27:18;11.00;;;2.77;;
2618;SDS011;1319;52.346;13.096;2024-03-23T04:29:46;12.73;;;3.00;;
2618;SDS011;1319;52.346;13.096;2024-03-23T04:32:11;11.73;;;3.43;;
2618;SDS011;1319;52.346;13.096;2024-03-23T04:34:36;15.53;;;3.00;;
2618;SDS011;1319;52.346;13.096;2024-03-23T04:37:01;16.50;;;2.77;;
2618;SDS011;1319;52.346;13.096;2024-03-23T04:39:27;10.63;;;2.50;;
2618;SDS011;1319;52.346;13.096;2024-03-23T04:41:52;11.60;;;2.80;;
2618;SDS011;1319;52.346;13.096;2024-03-23T04:44:17;17.20;;;2.40;;
2618;SDS011;1319;52.346;13.096;2024-03-23T04:46:42;13.03;;;2.63;;
2618;SDS011;1319;52.346;13.096;2024-03-23T04:49:08;9.30;;;2.40;;
2618;SDS011;1319;52.346;13.096;2024-03-23T04:51:36;14.23;;;2.53;;
2618;SDS011;1319;52.346;13.096;2024-03-23T04:54:06;14.47;;;2.63;;
2618;SDS011;1319;52.346;13.096;2024-03-23T04:56:32;9.70;;;2.33;;
2618;SDS011;1319;52.346;13.096;2024-03-23T04:58:58;15.97;;;2.43;;
2618;SDS011;1319;52.346;13.096;2024-03-23T05:01:27;13.17;;;2.53;;
2618;SDS011;1319;52.346;13.096;2024-03-23T05:03:52;10.67;;;2.53;;
2618;SDS011;1319;52.346;13.096;2024-03-23T05:06:18;13.63;;;2.40;;
2618;SDS011;1319;52.346;13.096;2024-03-23T05:08:43;13.60;;;2.57;;
2618;SDS011;1319;52.346;13.096;2024-03-23T05:11:08;15.93;;;2.93;;
2618;SDS011;1319;52.346;13.096;2024-03-23T05:13:34;14.00;;;2.50;;
2618;SDS011;1319;52.346;13.096;2024-03-23T05:15:59;11.03;;;2.40;;
2618;SDS011;1319;52.346;13.096;2024-03-23T05:18:24;10.40;;;2.30;;
2618;SDS011;1319;52.346;13.096;2024-03-23T05:20:55;9.57;;;2.80;;
2618;SDS011;1319;52.346;13.096;2024-03-23T05:23:20;13.70;;;2.77;;
2618;SDS011;1319;52.346;13.096;2024-03-23T05:25:45;16.43;;;2.77;;
2618;SDS011;1319;52.346;13.096;2024-03-23T05:28:11;15.93;;;2.90;;
2618;SDS011;1319;52.346;13.096;2024-03-23T05:30:36;17.20;;;2.80;;
2618;SDS011;1319;52.346;13.096;2024-03-23T05:33:01;11.33;;;2.63;;
2618;SDS011;1319;52.346;13.096;2024-03-23T05:35:27;11.83;;;2.90;;
2618;SDS011;1319;52.346;13.096;2024-03-23T05:37:52;17.20;;;2.67;;
2618;SDS011;1319;52.346;13.096;2024-03-23T05:40:17;16.40;;;3.13;;
2618;SDS011;1319;52.346;13.096;2024-03-23T05:42:43;14.70;;;3.07;;
2618;SDS011;1319;52.346;13.096;2024-03-23T05:45:08;13.83;;;2.60;;
2618;SDS011;1319;52.346;13.096;2024-03-23T05:47:33;8.40;;;2.77;;
2618;SDS011;1319;52.346;13.096;2024-03-23T05:49:58;11.80;;;3.00;;
2618;SDS011;1319;52.346;13.096;2024-03-23T05:52:24;8.40;;;2.63;;
2618;SDS011;1319;52.346;13.096;2024-03-23T05:54:50;15.03;;;3.03;;
2618;SDS011;1319;52.346;13.096;2024-03-23T05:57:15;9.83;;;2.60;;
2618;SDS011;1319;52.346;13.096;2024-03-23T05:59:40;11.47;;;2.70;;
2618;SDS011;1319;52.346;13.096;2024-03-23T06:02:06;15.57;;;3.10;;
2618;SDS011;1319;52.346;13.096;2024-03-23T06:04:31;5.23;;;2.57;;
2618;SDS011;1319;52.346;13.096;2024-03-23T06:06:56;13.00;;;2.90;;
2618;SDS011;1319;52.346;13.096;2024-03-23T06:09:22;17.57;;;3.13;;
2618;SDS011;1319;52.346;13.096;2024-03-23T06:11:48;13.57;;;2.70;;
2618;SDS011;1319;52.346;13.096;2024-03-23T06:14:13;7.87;;;2.80;;
2618;SDS011;1319;52.346;13.096;2024-03-23T06:16:38;10.40;;;2.87;;
2618;SDS011;1319;52.346;13.096;2024-03-23T06:19:04;10.87;;;3.00;;
2618;SDS011;1319;52.346;13.096;2024-03-23T06:21:31;10.10;;;2.40;;
2618;SDS011;1319;52.346;13.096;2024-03-23T06:23:56;6.93;;;2.70;;
2618;SDS011;1319;52.346;13.096;2024-03-23T06:26:22;18.50;;;3.27;;
2618;SDS011;1319;52.346;13.096;2024-03-23T06:28:47;9.30;;;2.67;;
2618;SDS011;1319;52.346;13.096;2024-03-23T06:31:12;14.43;;;2.50;;
2618;SDS011;1319;52.346;13.096;2024-03-23T06:33:38;11.27;;;2.67;;
2618;SDS011;1319;52.346;13.096;2024-03-23T06:36:07;9.50;;;2.77;;
2618;SDS011;1319;52.346;13.096;2024-03-23T06:38:33;13.83;;;2.90;;
2618;SDS011;1319;52.346;13.096;2024-03-23T06:41:00;11.97;;;2.57;;
2618;SDS011;1319;52.346;13.096;2024-03-23T06:43:27;11.37;;;2.97;;
2618;SDS011;1319;52.346;13.096;2024-03-23T06:45:55;11.17;;;2.60;;
2618;SDS011;1319;52.346;13.096;2024-03-23T06:48:21;14.33;;;2.87;;
2618;SDS011;1319;52.346;13.096;2024-03-23T06:50:46;10.53;;;2.70;;
2618;SDS011;1319;52.346;13.096;2024-03-23T06:53:12;9.37;;;2.77;;
2618;SDS011;1319;52.346;13.096;2024-03-23T06:55:38;11.87;;;2.30;;
2618;SDS011;1319;52.346;13.096;2024-03-23T06:58:03;7.13;;;2.00;;
2618;SDS011;1319;52.346;13.096;2024-03-23T07:00:29;10.03;;;2.53;;
2618;SDS011;1319;52.346;13.096;2024-03-23T07:02:54;5.43;;;2.07;;
2618;SDS011;1319;52.346;13.096;2024-03-23T07:05:19;6.03;;;2.20;;
2618;SDS011;1319;52.346;13.096;2024-03-23T07:07:44;8.70;;;2.63;;
2618;SDS011;1319;52.346;13.096;2024-03-23T07:10:10;12.47;;;2.27;;
2618;SDS011;1319;52.346;13.096;2024-03-23T07:12:35;10.40;;;2.60;;
2618;SDS011;1319;52.346;13.096;2024-03-23T07:15:00;9.67;;;2.23;;
2618;SDS011;1319;52.346;13.096;2024-03-23T07:17:25;9.23;;;2.60;;
2618;SDS011;1319;52.346;13.096;2024-03-23T07:19:50;7.57;;;2.70;;
2618;SDS011;1319;52.346;13.096;2024-03-23T07:22:16;8.73;;;2.63;;
2618;SDS011;1319;52.346;13.096;2024-03-23T07:24:41;10.80;;;2.53;;
2618;SDS011;1319;52.346;13.096;2024-03-23T07:27:06;15.67;;;2.70;;
2618;SDS011;1319;52.346;13.096;2024-03-23T07:29:34;12.50;;;3.77;;
2618;SDS011;1319;52.346;13.096;2024-03-23T07:32:00;10.87;;;2.43;;
2618;SDS011;1319;52.346;13.096;2024-03-23T07:34:26;11.90;;;2.53;;
2618;SDS011;1319;52.346;13.096;2024-03-23T07:36:51;9.60;;;2.47;;
2618;SDS011;1319;52.346;13.096;2024-03-23T07:39:16;13.07;;;2.80;;
2618;SDS011;1319;52.346;13.096;2024-03-23T07:41:44;13.20;;;2.90;;
2618;SDS011;1319;52.346;13.096;2024-03-23T07:44:09;7.70;;;2.60;;
2618;SDS011;1319;52.346;13.096;2024-03-23T07:46:34;12.37;;;2.50;;
2618;SDS011;1319;52.346;13.096;2024-03-23T07:48:59;10.63;;;2.90;;
2618;SDS011;1319;52.346;13.096;2024-03-23T07:51:25;12.13;;;2.50;;
2618;SDS011;1319;52.346;13.096;2024-03-23T07:53:50;12.17;;;2.43;;
2618;SDS011;1319;52.346;13.096;2024-03-23T07:56:15;8.63;;;2.90;;
2618;SDS011;1319;52.346;13.096;2024-03-23T07:58:41;9.40;;;2.73;;
2618;SDS011;1319;52.346;13.096;2024-03-23T08:01:07;7.63;;;2.77;;
2618;SDS011;1319;52.346;13.096;2024-03-23T08:03:33;10.20;;;2.63;;
2618;SDS011;1319;52.346;13.096;2024-03-23T08:06:06;11.07;;;2.43;;
2618;SDS011;1319;52.346;13.096;2024-03-23T08:08:31;8.20;;;2.63;;
2618;SDS011;1319;52.346;13.096;2024-03-23T08:10:56;8.50;;;2.60;;
2618;SDS011;1319;52.346;13.096;2024-03-23T08:13:21;7.83;;;2.77;;
2618;SDS011;1319;52.346;13.096;2024-03-23T08:15:47;6.87;;;2.67;;
2618;SDS011;1319;52.346;13.096;2024-03-23T08:18:12;6.10;;;1.80;;
2618;SDS011;1319;52.346;13.096;2024-03-23T08:20:38;5.20;;;1.83;;
2618;SDS011;1319;52.346;13.096;2024-03-23T08:23:04;6.40;;;1.77;;
2618;SDS011;1319;52.346;13.096;2024-03-23T08:25:31;4.73;;;1.70;;
2618;SDS011;1319;52.346;13.096;2024-03-23T08:27:56;5.47;;;1.57;;
2618;SDS011;1319;52.346;13.096;2024-03-23T08:30:22;6.67;;;2.00;;
2618;SDS011;1319;52.346;13.096;2024-03-23T08:32:47;6.93;;;2.07;;
2618;SDS011;1319;52.346;13.096;2024-03-23T08:35:12;4.80;;;1.80;;
2618;SDS011;1319;52.346;13.096;2024-03-23T08:37:38;3.47;;;1.50;;
2618;SDS011;1319;52.346;13.096;2024-03-23T08:40:03;4.87;;;1.53;;
2618;SDS011;1319;52.346;13.096;2024-03-23T08:42:29;4.00;;;1.43;;
2618;SDS011;1319;52.346;13.096;2024-03-23T08:44:55;3.63;;;1.37;;
2618;SDS011;1319;52.346;13.096;2024-03-23T08:47:20;1.73;;;1.27;;
2618;SDS011;1319;52.346;13.096;2024-03-23T08:49:45;5.93;;;1.67;;
2618;SDS011;1319;52.346;13.096;2024-03-23T08:52:11;5.93;;;1.53;;
2618;SDS011;1319;52.346;13.096;2024-03-23T08:54:36;4.23;;;1.70;;
2618;SDS011;1319;52.346;13.096;2024-03-23T08:57:01;4.20;;;1.80;;
2618;SDS011;1319;52.346;13.096;2024-03-23T08:59:27;5.33;;;2.03;;
2618;SDS011;1319;52.346;13.096;2024-03-23T09:01:52;4.53;;;1.60;;
2618;SDS011;1319;52.346;13.096;2024-03-23T09:04:17;7.80;;;1.70;;
2618;SDS011;1319;52.346;13.096;2024-03-23T09:06:43;4.70;;;1.80;;
2618;SDS011;1319;52.346;13.096;2024-03-23T09:09:08;5.70;;;1.70;;
2618;SDS011;1319;52.346;13.096;2024-03-23T09:11:33;3.80;;;1.50;;
2618;SDS011;1319;52.346;13.096;2024-03-23T09:13:58;4.83;;;1.70;;
2618;SDS011;1319;52.346;13.096;2024-03-23T09:16:24;4.27;;;1.30;;
2618;SDS011;1319;52.346;13.096;2024-03-23T09:18:49;5.70;;;1.67;;
2618;SDS011;1319;52.346;13.096;2024-03-23T09:21:14;3.57;;;1.53;;
2618;SDS011;1319;52.346;13.096;2024-03-23T09:23:40;6.57;;;1.70;;
2618;SDS011;1319;52.346;13.096;2024-03-23T09:26:05;6.87;;;1.80;;
2618;SDS011;1319;52.346;13.096;2024-03-23T09:28:32;4.40;;;1.67;;
2618;SDS011;1319;52.346;13.096;2024-03-23T09:31:04;8.67;;;1.70;;
2618;SDS011;1319;52.346;13.096;2024-03-23T09:33:29;4.70;;;1.93;;
2618;SDS011;1319;52.346;13.096;2024-03-23T09:35:54;9.50;;;1.83;;
2618;SDS011;1319;52.346;13.096;2024-03-23T09:38:20;6.60;;;1.80;;
2618;SDS011;1319;52.346;13.096;2024-03-23T09:40:46;9.50;;;1.90;;
2618;SDS011;1319;52.346;13.096;2024-03-23T09:43:13;6.17;;;1.80;;
2618;SDS011;1319;52.346;13.096;2024-03-23T09:45:38;5.57;;;2.30;;
2618;SDS011;1319;52.346;13.096;2024-03-23T09:48:04;9.10;;;2.30;;
2618;SDS011;1319;52.346;13.096;2024-03-23T09:50:29;4.33;;;1.80;;
2618;SDS011;1319;52.346;13.096;2024-03-23T09:52:55;7.80;;;2.17;;
2618;SDS011;1319;52.346;13.096;2024-03-23T09:55:20;5.67;;;1.93;;
2618;SDS011;1319;52.346;13.096;2024-03-23T09:57:45;9.90;;;2.07;;
2618;SDS011;1319;52.346;13.096;2024-03-23T10:00:11;7.97;;;2.00;;
2618;SDS011;1319;52.346;13.096;2024-03-23T10:02:37;8.60;;;2.30;;
2618;SDS011;1319;52.346;13.096;2024-03-23T10:05:02;6.97;;;1.80;;
2618;SDS011;1319;52.346;13.096;2024-03-23T10:07:29;10.13;;;2.20;;
2618;SDS011;1319;52.346;13.096;2024-03-23T10:09:54;10.83;;;2.60;;
2618;SDS011;1319;52.346;13.096;2024-03-23T10:12:20;7.73;;;2.17;;
2618;SDS011;1319;52.346;13.096;2024-03-23T10:14:45;6.70;;;2.20;;
2618;SDS011;1319;52.346;13.096;2024-03-23T10:17:15;5.40;;;2.10;;
2618;SDS011;1319;52.346;13.096;2024-03-23T10:19:47;15.40;;;2.47;;
2618;SDS011;1319;52.346;13.096;2024-03-23T10:22:16;9.30;;;2.23;;
2618;SDS011;1319;52.346;13.096;2024-03-23T10:24:42;7.33;;;2.07;;
2618;SDS011;1319;52.346;13.096;2024-03-23T10:27:07;7.73;;;2.10;;
2618;SDS011;1319;52.346;13.096;2024-03-23T10:29:33;11.73;;;2.33;;
2618;SDS011;1319;52.346;13.096;2024-03-23T10:32:11;12.70;;;2.17;;
2618;SDS011;1319;52.346;13.096;2024-03-23T10:34:37;10.90;;;2.13;;
2618;SDS011;1319;52.346;13.096;2024-03-23T10:37:02;7.80;;;2.23;;
2618;SDS011;1319;52.346;13.096;2024-03-23T10:39:38;6.63;;;1.90;;
2618;SDS011;1319;52.346;13.096;2024-03-23T10:42:04;8.03;;;1.80;;
2618;SDS011;1319;52.346;13.096;2024-03-23T10:44:30;4.00;;;1.57;;
2618;SDS011;1319;52.346;13.096;2024-03-23T10:46:56;7.37;;;1.67;;
2618;SDS011;1319;52.346;13.096;2024-03-23T10:49:34;7.07;;;2.20;;
2618;SDS011;1319;52.346;13.096;2024-03-23T10:51:59;8.13;;;1.90;;
2618;SDS011;1319;52.346;13.096;2024-03-23T10:54:25;9.43;;;2.30;;
2618;SDS011;1319;52.346;13.096;2024-03-23T10:57:05;5.77;;;1.70;;
2618;SDS011;1319;52.346;13.096;2024-03-23T10:59:31;5.93;;;1.93;;
2618;SDS011;1319;52.346;13.096;2024-03-23T11:01:57;5.97;;;1.83;;
2618;SDS011;1319;52.346;13.096;2024-03-23T11:04:32;11.00;;;2.13;;
2618;SDS011;1319;52.346;13.096;2024-03-23T11:06:58;4.23;;;1.60;;
2618;SDS011;1319;52.346;13.096;2024-03-23T11:11:55;10.43;;;2.23;;
2618;SDS011;1319;52.346;13.096;2024-03-23T11:14:23;7.50;;;1.80;;
2618;SDS011;1319;52.346;13.096;2024-03-23T11:16:55;7.10;;;1.93;;
2618;SDS011;1319;52.346;13.096;2024-03-23T11:19:33;5.10;;;1.70;;
2618;SDS011;1319;52.346;13.096;2024-03-23T11:21:59;3.13;;;1.60;;
2618;SDS011;1319;52.346;13.096;2024-03-23T11:24:24;7.03;;;1.70;;
2618;SDS011;1319;52.346;13.096;2024-03-23T11:26:49;6.60;;;2.10;;
2618;SDS011;1319;52.346;13.096;2024-03-23T11:29:15;7.60;;;2.10;;
2618;SDS011;1319;52.346;13.096;2024-03-23T11:31:50;7.10;;;2.63;;
2618;SDS011;1319;52.346;13.096;2024-03-23T11:34:16;9.60;;;2.20;;
2618;SDS011;1319;52.346;13.096;2024-03-23T11:36:42;6.07;;;2.00;;
2618;SDS011;1319;52.346;13.096;2024-03-23T11:39:20;7.90;;;2.20;;
2618;SDS011;1319;52.346;13.096;2024-03-23T11:41:46;9.43;;;2.13;;
2618;SDS011;1319;52.346;13.096;2024-03-23T11:44:18;3.70;;;1.77;;
2618;SDS011;1319;52.346;13.096;2024-03-23T11:46:43;12.77;;;2.23;;
2618;SDS011;1319;52.346;13.096;2024-03-23T11:49:24;7.87;;;1.90;;
2618;SDS011;1319;52.346;13.096;2024-03-23T11:51:50;8.13;;;2.00;;
2618;SDS011;1319;52.346;13.096;2024-03-23T11:54:16;5.80;;;1.87;;
2618;SDS011;1319;52.346;13.096;2024-03-23T11:56:53;7.73;;;1.87;;
2618;SDS011;1319;52.346;13.096;2024-03-23T12:01:59;8.60;;;2.07;;
2618;SDS011;1319;52.346;13.096;2024-03-23T12:04:27;5.90;;;2.00;;
2618;SDS011;1319;52.346;13.096;2024-03-23T12:07:08;13.43;;;3.17;;
2618;SDS011;1319;52.346;13.096;2024-03-23T12:09:34;8.50;;;1.93;;
2618;SDS011;1319;52.346;13.096;2024-03-23T12:12:05;11.03;;;2.70;;
2618;SDS011;1319;52.346;13.096;2024-03-23T12:14:30;10.73;;;2.60;;
2618;SDS011;1319;52.346;13.096;2024-03-23T12:16:56;8.50;;;2.13;;
2618;SDS011;1319;52.346;13.096;2024-03-23T12:19:31;8.63;;;2.60;;
2618;SDS011;1319;52.346;13.096;2024-03-23T12:21:57;9.43;;;2.37;;
2618;SDS011;1319;52.346;13.096;2024-03-23T12:24:22;9.83;;;2.30;;
2618;SDS011;1319;52.346;13.096;2024-03-23T12:26:47;8.07;;;2.63;;
2618;SDS011;1319;52.346;13.096;2024-03-23T12:29:15;10.63;;;2.20;;
2618;SDS011;1319;52.346;13.096;2024-03-23T12:31:40;8.73;;;2.60;;
2618;SDS011;1319;52.346;13.096;2024-03-23T12:34:06;6.47;;;2.13;;
2618;SDS011;1319;52.346;13.096;2024-03-23T12:36:31;6.03;;;2.10;;
2618;SDS011;1319;52.346;13.096;2024-03-23T12:38:56;8.23;;;2.00;;
2618;SDS011;1319;52.346;13.096;2024-03-23T12:41:21;3.53;;;1.53;;
2618;SDS011;1319;52.346;13.096;2024-03-23T12:43:46;4.63;;;1.80;;
2618;SDS011;1319;52.346;13.096;2024-03-23T12:46:12;10.40;;;1.90;;
2618;SDS011;1319;52.346;13.096;2024-03-23T12:48:37;4.50;;;1.90;;
2618;SDS011;1319;52.346;13.096;2024-03-23T12:51:02;10.60;;;2.00;;
2618;SDS011;1319;52.346;13.096;2024-03-23T12:53:27;6.83;;;2.13;;
2618;SDS011;1319;52.346;13.096;2024-03-23T12:55:52;6.70;;;1.80;;
2618;SDS011;1319;52.346;13.096;2024-03-23T12:58:18;6.33;;;2.20;;
2618;SDS011;1319;52.346;13.096;2024-03-23T13:00:43;7.87;;;2.30;;
2618;SDS011;1319;52.346;13.096;2024-03-23T13:03:09;5.27;;;2.10;;
2618;SDS011;1319;52.346;13.096;2024-03-23T13:05:38;4.43;;;1.80;;
2618;SDS011;1319;52.346;13.096;2024-03-23T13:08:03;3.90;;;1.80;;
2618;SDS011;1319;52.346;13.096;2024-03-23T13:10:29;6.87;;;2.10;;
2618;SDS011;1319;52.346;13.096;2024-03-23T13:12:54;6.70;;;2.00;;
2618;SDS011;1319;52.346;13.096;2024-03-23T13:15:19;6.17;;;2.07;;
2618;SDS011;1319;52.346;13.096;2024-03-23T13:17:45;7.77;;;2.57;;
2618;SDS011;1319;52.346;13.096;2024-03-23T13:20:11;7.30;;;2.10;;
2618;SDS011;1319;52.346;13.096;2024-03-23T13:22:39;8.73;;;2.13;;
2618;SDS011;1319;52.346;13.096;2024-03-23T13:25:04;6.77;;;2.53;;
2618;SDS011;1319;52.346;13.096;2024-03-23T13:27:30;10.70;;;2.20;;
2618;SDS011;1319;52.346;13.096;2024-03-23T13:29:55;12.03;;;2.67;;
2618;SDS011;1319;52.346;13.096;2024-03-23T13:32:20;6.83;;;2.30;;
2618;SDS011;1319;52.346;13.096;2024-03-23T13:34:45;8.33;;;3.53;;
2618;SDS011;1319;52.346;13.096;2024-03-23T13:37:11;6.63;;;2.60;;
2618;SDS011;1319;52.346;13.096;2024-03-23T13:39:36;11.57;;;2.97;;
2618;SDS011;1319;52.346;13.096;2024-03-23T13:42:01;8.60;;;2.83;;
2618;SDS011;1319;52.346;13.096;2024-03-23T13:44:26;12.30;;;2.90;;
2618;SDS011;1319;52.346;13.096;2024-03-23T13:46:51;11.03;;;2.93;;
2618;SDS011;1319;52.346;13.096;2024-03-23T13:49:27;9.60;;;3.40;;
2618;SDS011;1319;52.346;13.096;2024-03-23T13:51:53;10.97;;;3.10;;
2618;SDS011;1319;52.346;13.096;2024-03-23T13:54:18;9.13;;;3.57;;
2618;SDS011;1319;52.346;13.096;2024-03-23T13:56:43;11.60;;;3.60;;
2618;SDS011;1319;52.346;13.096;2024-03-23T13:59:09;10.53;;;3.80;;
2618;SDS011;1319;52.346;13.096;2024-03-23T14:01:34;10.37;;;3.50;;
2618;SDS011;1319;52.346;13.096;2024-03-23T14:03:59;9.07;;;3.57;;
2618;SDS011;1319;52.346;13.096;2024-03-23T14:06:25;14.60;;;3.80;;
2618;SDS011;1319;52.346;13.096;2024-03-23T14:08:50;8.20;;;3.63;;
2618;SDS011;1319;52.346;13.096;2024-03-23T14:11:17;14.43;;;4.57;;
2618;SDS011;1319;52.346;13.096;2024-03-23T14:13:42;10.00;;;3.77;;
2618;SDS011;1319;52.346;13.096;2024-03-23T14:16:08;16.40;;;3.83;;
2618;SDS011;1319;52.346;13.096;2024-03-23T14:18:33;9.50;;;4.17;;
2618;SDS011;1319;52.346;13.096;2024-03-23T14:20:59;14.63;;;4.00;;
2618;SDS011;1319;52.346;13.096;2024-03-23T14:23:25;11.13;;;4.30;;
2618;SDS011;1319;52.346;13.096;2024-03-23T14:25:52;8.83;;;3.80;;
2618;SDS011;1319;52.346;13.096;2024-03-23T14:28:17;11.97;;;4.27;;
2618;SDS011;1319;52.346;13.096;2024-03-23T14:30:42;5.70;;;2.33;;
2618;SDS011;1319;52.346;13.096;2024-03-23T14:33:08;4.20;;;2.10;;
2618;SDS011;1319;52.346;13.096;2024-03-23T14:35:33;5.23;;;1.90;;
2618;SDS011;1319;52.346;13.096;2024-03-23T14:37:59;7.73;;;2.30;;
2618;SDS011;1319;52.346;13.096;2024-03-23T14:40:24;7.50;;;2.50;;
2618;SDS011;1319;52.346;13.096;2024-03-23T14:42:52;4.73;;;1.90;;
2618;SDS011;1319;52.346;13.096;2024-03-23T14:45:17;5.47;;;2.10;;
2618;SDS011;1319;52.346;13.096;2024-03-23T14:47:42;6.47;;;2.13;;
2618;SDS011;1319;52.346;13.096;2024-03-23T14:50:08;7.53;;;1.97;;
2618;SDS011;1319;52.346;13.096;2024-03-23T14:52:36;3.17;;;1.70;;
2618;SDS011;1319;52.346;13.096;2024-03-23T14:55:02;4.77;;;2.50;;
2618;SDS011;1319;52.346;13.096;2024-03-23T14:57:27;2.43;;;2.10;;
2618;SDS011;1319;52.346;13.096;2024-03-23T14:59:54;6.97;;;2.40;;
2618;SDS011;1319;52.346;13.096;2024-03-23T15:02:19;6.30;;;2.20;;
2618;SDS011;1319;52.346;13.096;2024-03-23T15:04:44;6.33;;;2.30;;
2618;SDS011;1319;52.346;13.096;2024-03-23T15:07:10;3.73;;;1.93;;
2618;SDS011;1319;52.346;13.096;2024-03-23T15:09:35;5.80;;;2.03;;
2618;SDS011;1319;52.346;13.096;2024-03-23T15:12:00;5.37;;;2.37;;
2618;SDS011;1319;52.346;13.096;2024-03-23T15:14:25;6.93;;;2.10;;
2618;SDS011;1319;52.346;13.096;2024-03-23T15:16:50;3.40;;;2.00;;
2618;SDS011;1319;52.346;13.096;2024-03-23T15:19:17;4.77;;;2.20;;
2618;SDS011;1319;52.346;13.096;2024-03-23T15:21:43;7.63;;;2.10;;
2618;SDS011;1319;52.346;13.096;2024-03-23T15:24:08;4.77;;;2.63;;
2618;SDS011;1319;52.346;13.096;2024-03-23T15:26:36;3.20;;;2.17;;
2618;SDS011;1319;52.346;13.096;2024-03-23T15:29:01;4.53;;;2.40;;
2618;SDS011;1319;52.346;13.096;2024-03-23T15:31:26;6.90;;;2.67;;
2618;SDS011;1319;52.346;13.096;2024-03-23T15:33:51;11.80;;;2.40;;
2618;SDS011;1319;52.346;13.096;2024-03-23T15:36:17;8.13;;;2.70;;
2618;SDS011;1319;52.346;13.096;2024-03-23T15:38:42;5.37;;;2.20;;
2618;SDS011;1319;52.346;13.096;2024-03-23T15:41:08;7.47;;;2.63;;
2618;SDS011;1319;52.346;13.096;2024-03-23T15:43:33;6.70;;;2.10;;
2618;SDS011;1319;52.346;13.096;2024-03-23T15:46:02;9.57;;;2.30;;